Orlando, FL

12:21 PM EDT on September 04, 2015 (GMT -0400)
Union Park | | Change Station
CLOSE
Current Station
Personal Weather Station
Location: Orlando, FL
Elevation: 110 ft
Nearby Weather Stations

Elev 110 ft 28.56 °N, 81.24 °W | Updated 7 seconds ago

Partly Cloudy
Partly Cloudy
87.0 °F
Feels Like 99 °F
N
2.0
Wind Variable Wind from NNE
Gusts 5.0 mph

Today
High -- | Low -- °F
--% Chance of Precip.
Yesterday
High -- | Low -- °F
Precip. -- in
7:04 AM 7:43 PM
Waning Gibbous, 58% visible
Pressure 30.01 in
Visibility 10.0 miles
Clouds Few 3300 ft
Few 4700 ft
Heat Index 99 °F
Dew Point 77 °F
Humidity 73%
Rainfall 0.00 in
Snow Depth Not available.
UV 11 out of 12
Pollen 6.90 out of 12
Air Quality Not available.
Flu Activity Not available.
METAR KORL 041553Z 35006KT 10SM FEW033 FEW047 31/25 A3000 RMK AO2 SLP161 T03110250
Pressure 30.01 in
Visibility 10.0 miles
Clouds Few 3300 ft
Few 4700 ft
Heat Index 99 °F
Dew Point 77 °F
Humidity 73%
Rainfall 0.00 in
Snow Depth Not available.
UV 11 out of 12
Pollen 6.90 out of 12
Air Quality Not available.
Flu Activity Not available.
METAR KORL 041553Z 35006KT 10SM FEW033 FEW047 31/25 A3000 RMK AO2 SLP161 T03110250
Nowcast | as of 11:33 am EDT on September 4, 2015

Area of light rain will continue to weaken as it moves eastward into Lake County through early this afternoon. Additional light showers and sprinkles will be possible with mid to high level cloud deck north of Orlando. A moist airmass across the region will lead to increasing showers and storms over the area into the afternoon with the best chance for initial development along the coast from Cape Canaveral southward as the East Coast sea breeze forms. Any storms will move east to southeast around 10 to 15 mph and will produce dangerous cloud to ground lightning and gusty winds. Additional details...including graphics are available online at: http://www.Srh.NOAA.Gov/mlb/blog.Php

×

10-Day Weather Forecast

×

Almanac

Astronomy

Sep. 04, 2015 Rise Set
Actual Time
Civil Twilight
Nautical Twilight
Astronomical Twilight
Moon
Length of Visible Light
Length of Day
Tomorrow will be .
, % of the Moon is Illuminated

Today's Extremes

State Highs State Lows

Community

WunderPhotos

Upload Photos

1,852,218 photos uploaded!

WunderBlogs® & News

Nearby

Air Quality

  Air Quality AQ Index Pollutant
Not available.

Snow Depth

Station Depth Elevation

Earthquake Activity

City Distance Mag. Time & Date
Minimum magnitude displayed is 2.5.

Coastal Water Temperatures

Place Temperature

Stations

Nearby Weather Stations

Station Location Temp. Windchill Dew Point Humidity Wind Precip. Elev Updated Type